sensor_id;sensor_type;location;lat;lon;timestamp;pressure;altitude;pressure_sealevel;temperature;humidity
75157;BME280;63736;50.076;8.198;2023-03-21T00:01:27;99751.56;;;8.60;100.00
75157;BME280;63736;50.076;8.198;2023-03-21T00:03:52;99759.56;;;8.60;100.00
75157;BME280;63736;50.076;8.198;2023-03-21T00:06:17;99750.84;;;8.58;100.00
75157;BME280;63736;50.076;8.198;2023-03-21T00:08:42;99749.97;;;8.58;100.00
75157;BME280;63736;50.076;8.198;2023-03-21T00:11:09;99752.63;;;8.58;100.00
75157;BME280;63736;50.076;8.198;2023-03-21T00:13:36;99745.72;;;8.55;100.00
75157;BME280;63736;50.076;8.198;2023-03-21T00:18:32;99738.06;;;8.51;100.00
75157;BME280;63736;50.076;8.198;2023-03-21T00:21:02;99737.22;;;8.50;100.00
75157;BME280;63736;50.076;8.198;2023-03-21T00:23:29;99739.97;;;8.49;100.00
75157;BME280;63736;50.076;8.198;2023-03-21T00:25:56;99742.53;;;8.50;100.00
75157;BME280;63736;50.076;8.198;2023-03-21T00:28:21;99739.88;;;8.50;100.00
75157;BME280;63736;50.076;8.198;2023-03-21T00:30:47;99731.75;;;8.52;100.00
75157;BME280;63736;50.076;8.198;2023-03-21T00:33:12;99728.16;;;8.53;100.00
75157;BME280;63736;50.076;8.198;2023-03-21T00:35:39;99731.44;;;8.56;100.00
75157;BME280;63736;50.076;8.198;2023-03-21T00:38:09;99723.34;;;8.58;100.00
75157;BME280;63736;50.076;8.198;2023-03-21T00:40:35;99733.03;;;8.59;100.00
75157;BME280;63736;50.076;8.198;2023-03-21T00:43:00;99726.00;;;8.58;100.00
75157;BME280;63736;50.076;8.198;2023-03-21T00:45:25;99731.22;;;8.59;100.00
75157;BME280;63736;50.076;8.198;2023-03-21T00:47:51;99722.50;;;8.57;100.00
75157;BME280;63736;50.076;8.198;2023-03-21T00:50:16;99720.91;;;8.55;100.00
75157;BME280;63736;50.076;8.198;2023-03-21T00:52:42;99716.66;;;8.52;100.00
75157;BME280;63736;50.076;8.198;2023-03-21T00:55:12;99714.13;;;8.51;100.00
75157;BME280;63736;50.076;8.198;2023-03-21T00:57:38;99712.41;;;8.50;100.00
75157;BME280;63736;50.076;8.198;2023-03-21T01:00:03;99717.97;;;8.47;100.00
75157;BME280;63736;50.076;8.198;2023-03-21T01:02:31;99717.09;;;8.46;100.00
75157;BME280;63736;50.076;8.198;2023-03-21T01:04:56;99719.84;;;8.44;100.00
75157;BME280;63736;50.076;8.198;2023-03-21T01:07:22;99706.66;;;8.43;100.00
75157;BME280;63736;50.076;8.198;2023-03-21T01:09:47;99710.38;;;8.40;100.00
75157;BME280;63736;50.076;8.198;2023-03-21T01:12:12;99713.03;;;8.40;100.00
75157;BME280;63736;50.076;8.198;2023-03-21T01:14:38;99707.09;;;8.37;100.00
75157;BME280;63736;50.076;8.198;2023-03-21T01:17:04;99706.44;;;8.33;100.00
75157;BME280;63736;50.076;8.198;2023-03-21T01:19:29;99702.31;;;8.29;100.00
75157;BME280;63736;50.076;8.198;2023-03-21T01:21:55;99706.28;;;8.23;100.00
75157;BME280;63736;50.076;8.198;2023-03-21T01:24:21;99701.38;;;8.17;100.00
75157;BME280;63736;50.076;8.198;2023-03-21T01:26:47;99698.44;;;8.09;100.00
75157;BME280;63736;50.076;8.198;2023-03-21T01:29:12;99702.56;;;8.00;100.00
75157;BME280;63736;50.076;8.198;2023-03-21T01:31:38;99698.03;;;7.89;100.00
75157;BME280;63736;50.076;8.198;2023-03-21T01:34:03;99699.69;;;7.77;100.00
75157;BME280;63736;50.076;8.198;2023-03-21T01:36:29;99696.97;;;7.66;100.00
75157;BME280;63736;50.076;8.198;2023-03-21T01:38:54;99698.44;;;7.57;100.00
75157;BME280;63736;50.076;8.198;2023-03-21T01:43:47;99705.84;;;7.39;100.00
75157;BME280;63736;50.076;8.198;2023-03-21T01:46:33;99696.81;;;7.29;100.00
75157;BME280;63736;50.076;8.198;2023-03-21T01:51:41;99689.75;;;7.15;100.00
75157;BME280;63736;50.076;8.198;2023-03-21T01:54:11;99691.03;;;7.09;100.00
75157;BME280;63736;50.076;8.198;2023-03-21T01:56:39;99683.34;;;7.05;100.00
75157;BME280;63736;50.076;8.198;2023-03-21T01:59:31;99688.16;;;7.00;100.00
75157;BME280;63736;50.076;8.198;2023-03-21T02:02:01;99683.34;;;6.92;100.00
75157;BME280;63736;50.076;8.198;2023-03-21T02:04:32;99683.75;;;6.86;100.00
75157;BME280;63736;50.076;8.198;2023-03-21T02:07:00;99670.88;;;6.80;100.00
75157;BME280;63736;50.076;8.198;2023-03-21T02:09:31;99679.13;;;6.75;100.00
75157;BME280;63736;50.076;8.198;2023-03-21T02:11:58;99675.06;;;6.69;100.00
75157;BME280;63736;50.076;8.198;2023-03-21T02:14:23;99673.47;;;6.67;100.00
75157;BME280;63736;50.076;8.198;2023-03-21T02:17:11;99670.94;;;6.65;100.00
75157;BME280;63736;50.076;8.198;2023-03-21T02:22:33;99653.78;;;6.56;100.00
75157;BME280;63736;50.076;8.198;2023-03-21T02:25:40;99663.56;;;6.56;100.00
75157;BME280;63736;50.076;8.198;2023-03-21T02:28:27;99661.56;;;6.59;100.00
75157;BME280;63736;50.076;8.198;2023-03-21T02:31:23;99663.81;;;6.66;100.00
75157;BME280;63736;50.076;8.198;2023-03-21T02:36:58;99657.38;;;6.83;100.00
75157;BME280;63736;50.076;8.198;2023-03-21T02:39:40;99655.19;;;6.89;100.00
75157;BME280;63736;50.076;8.198;2023-03-21T02:42:16;99660.84;;;6.98;100.00
75157;BME280;63736;50.076;8.198;2023-03-21T02:44:48;99653.31;;;7.04;100.00
75157;BME280;63736;50.076;8.198;2023-03-21T02:47:45;99653.72;;;7.11;100.00
75157;BME280;63736;50.076;8.198;2023-03-21T02:50:41;99646.19;;;7.18;100.00
75157;BME280;63736;50.076;8.198;2023-03-21T02:53:09;99650.44;;;7.20;100.00
75157;BME280;63736;50.076;8.198;2023-03-21T02:55:36;99646.66;;;7.24;100.00
75157;BME280;63736;50.076;8.198;2023-03-21T02:58:03;99639.53;;;7.25;100.00
75157;BME280;63736;50.076;8.198;2023-03-21T03:00:31;99644.84;;;7.25;100.00
75157;BME280;63736;50.076;8.198;2023-03-21T03:02:58;99648.34;;;7.25;100.00
75157;BME280;63736;50.076;8.198;2023-03-21T03:05:27;99645.59;;;7.27;100.00
75157;BME280;63736;50.076;8.198;2023-03-21T03:10:49;99637.94;;;7.35;100.00
75157;BME280;63736;50.076;8.198;2023-03-21T03:16:17;99632.19;;;7.41;100.00
75157;BME280;63736;50.076;8.198;2023-03-21T03:18:53;99627.63;;;7.43;100.00
75157;BME280;63736;50.076;8.198;2023-03-21T03:21:37;99634.53;;;7.46;100.00
75157;BME280;63736;50.076;8.198;2023-03-21T03:24:14;99630.81;;;7.49;100.00
75157;BME280;63736;50.076;8.198;2023-03-21T03:26:49;99625.28;;;7.52;100.00
75157;BME280;63736;50.076;8.198;2023-03-21T03:29:17;99628.69;;;7.54;100.00
75157;BME280;63736;50.076;8.198;2023-03-21T03:31:48;99624.97;;;7.56;100.00
75157;BME280;63736;50.076;8.198;2023-03-21T03:34:18;99620.41;;;7.58;100.00
75157;BME280;63736;50.076;8.198;2023-03-21T03:36:47;99622.00;;;7.61;100.00
75157;BME280;63736;50.076;8.198;2023-03-21T03:39:17;99620.06;;;7.63;100.00
75157;BME280;63736;50.076;8.198;2023-03-21T03:41:51;99622.53;;;7.66;100.00
75157;BME280;63736;50.076;8.198;2023-03-21T03:44:18;99623.25;;;7.68;100.00
75157;BME280;63736;50.076;8.198;2023-03-21T03:49:20;99616.75;;;7.72;100.00
75157;BME280;63736;50.076;8.198;2023-03-21T03:51:58;99607.09;;;7.71;100.00
75157;BME280;63736;50.076;8.198;2023-03-21T03:54:33;99605.28;;;7.72;100.00
75157;BME280;63736;50.076;8.198;2023-03-21T03:57:02;99614.31;;;7.69;100.00
75157;BME280;63736;50.076;8.198;2023-03-21T03:59:28;99610.69;;;7.70;100.00
75157;BME280;63736;50.076;8.198;2023-03-21T04:01:54;99614.31;;;7.69;100.00
75157;BME280;63736;50.076;8.198;2023-03-21T04:04:19;99619.63;;;7.69;100.00
75157;BME280;63736;50.076;8.198;2023-03-21T04:06:47;99625.06;;;7.68;100.00
75157;BME280;63736;50.076;8.198;2023-03-21T04:09:16;99625.06;;;7.68;100.00
75157;BME280;63736;50.076;8.198;2023-03-21T04:11:42;99625.06;;;7.68;100.00
75157;BME280;63736;50.076;8.198;2023-03-21T04:14:08;99623.25;;;7.68;100.00
75157;BME280;63736;50.076;8.198;2023-03-21T04:16:33;99624.13;;;7.69;100.00
75157;BME280;63736;50.076;8.198;2023-03-21T04:18:58;99624.94;;;7.69;100.00
75157;BME280;63736;50.076;8.198;2023-03-21T04:21:24;99629.19;;;7.72;100.00
75157;BME280;63736;50.076;8.198;2023-03-21T04:23:49;99613.03;;;7.75;100.00
75157;BME280;63736;50.076;8.198;2023-03-21T04:26:15;99615.59;;;7.76;100.00
75157;BME280;63736;50.076;8.198;2023-03-21T04:28:41;99619.84;;;7.79;100.00
75157;BME280;63736;50.076;8.198;2023-03-21T04:31:07;99617.06;;;7.81;100.00
75157;BME280;63736;50.076;8.198;2023-03-21T04:33:33;99619.63;;;7.82;100.00
75157;BME280;63736;50.076;8.198;2023-03-21T04:36:03;99613.22;;;7.85;100.00
75157;BME280;63736;50.076;8.198;2023-03-21T04:38:30;99618.44;;;7.86;100.00
75157;BME280;63736;50.076;8.198;2023-03-21T04:40:57;99621.97;;;7.87;100.00
75157;BME280;63736;50.076;8.198;2023-03-21T04:43:22;99617.38;;;7.89;100.00
75157;BME280;63736;50.076;8.198;2023-03-21T04:45:48;99615.47;;;7.91;100.00
75157;BME280;63736;50.076;8.198;2023-03-21T04:48:14;99620.66;;;7.92;100.00
75157;BME280;63736;50.076;8.198;2023-03-21T04:50:42;99615.09;;;7.96;100.00
75157;BME280;63736;50.076;8.198;2023-03-21T04:53:07;99612.44;;;7.96;100.00
75157;BME280;63736;50.076;8.198;2023-03-21T04:55:32;99615.88;;;7.98;100.00
75157;BME280;63736;50.076;8.198;2023-03-21T04:57:57;99611.38;;;7.98;100.00
75157;BME280;63736;50.076;8.198;2023-03-21T05:00:23;99605.00;;;8.01;100.00
75157;BME280;63736;50.076;8.198;2023-03-21T05:02:49;99609.25;;;8.03;100.00
75157;BME280;63736;50.076;8.198;2023-03-21T05:05:15;99598.41;;;8.06;100.00
75157;BME280;63736;50.076;8.198;2023-03-21T05:07:40;99603.59;;;8.08;100.00
75157;BME280;63736;50.076;8.198;2023-03-21T05:10:09;99602.41;;;8.12;100.00
75157;BME280;63736;50.076;8.198;2023-03-21T05:12:34;99604.84;;;8.15;100.00
75157;BME280;63736;50.076;8.198;2023-03-21T05:15:00;99599.53;;;8.15;100.00
75157;BME280;63736;50.076;8.198;2023-03-21T05:17:25;99608.25;;;8.17;100.00
75157;BME280;63736;50.076;8.198;2023-03-21T05:19:52;99611.66;;;8.19;100.00
75157;BME280;63736;50.076;8.198;2023-03-21T05:22:21;99596.41;;;8.21;100.00
75157;BME280;63736;50.076;8.198;2023-03-21T05:24:48;99597.06;;;8.25;100.00
75157;BME280;63736;50.076;8.198;2023-03-21T05:27:18;99591.59;;;8.26;100.00
75157;BME280;63736;50.076;8.198;2023-03-21T05:32:30;99592.13;;;8.32;100.00
75157;BME280;63736;50.076;8.198;2023-03-21T05:34:56;99591.88;;;8.35;100.00
75157;BME280;63736;50.076;8.198;2023-03-21T05:37:21;99600.50;;;8.38;100.00
75157;BME280;63736;50.076;8.198;2023-03-21T05:39:47;99601.25;;;8.40;100.00
75157;BME280;63736;50.076;8.198;2023-03-21T05:42:12;99602.84;;;8.43;100.00
75157;BME280;63736;50.076;8.198;2023-03-21T05:44:37;99602.63;;;8.46;100.00
75157;BME280;63736;50.076;8.198;2023-03-21T05:47:05;99605.91;;;8.50;100.00
75157;BME280;63736;50.076;8.198;2023-03-21T05:49:30;99603.78;;;8.55;100.00
75157;BME280;63736;50.076;8.198;2023-03-21T05:51:56;99600.75;;;8.59;100.00
75157;BME280;63736;50.076;8.198;2023-03-21T05:54:22;99606.56;;;8.65;100.00
75157;BME280;63736;50.076;8.198;2023-03-21T05:56:47;99608.78;;;8.71;100.00
75157;BME280;63736;50.076;8.198;2023-03-21T05:59:12;99602.88;;;8.79;100.00
75157;BME280;63736;50.076;8.198;2023-03-21T06:01:37;99595.78;;;8.90;100.00
75157;BME280;63736;50.076;8.198;2023-03-21T06:04:03;99596.06;;;8.99;100.00
75157;BME280;63736;50.076;8.198;2023-03-21T06:06:28;99603.56;;;9.05;100.00
75157;BME280;63736;50.076;8.198;2023-03-21T06:08:53;99589.78;;;9.11;100.00
75157;BME280;63736;50.076;8.198;2023-03-21T06:11:23;99599.09;;;9.17;100.00
75157;BME280;63736;50.076;8.198;2023-03-21T06:13:50;99596.22;;;9.20;100.00
75157;BME280;63736;50.076;8.198;2023-03-21T06:16:15;99593.19;;;9.24;100.00
75157;BME280;63736;50.076;8.198;2023-03-21T06:18:40;99589.22;;;9.30;100.00
75157;BME280;63736;50.076;8.198;2023-03-21T06:21:06;99590.41;;;9.37;100.00
75157;BME280;63736;50.076;8.198;2023-03-21T06:23:31;99594.31;;;9.45;100.00
75157;BME280;63736;50.076;8.198;2023-03-21T06:25:56;99594.44;;;9.54;100.00
75157;BME280;63736;50.076;8.198;2023-03-21T06:28:21;99594.19;;;9.69;100.00
75157;BME280;63736;50.076;8.198;2023-03-21T06:30:47;99592.97;;;9.84;100.00
75157;BME280;63736;50.076;8.198;2023-03-21T06:33:12;99591.59;;;10.01;100.00
75157;BME280;63736;50.076;8.198;2023-03-21T06:35:37;99606.88;;;10.22;100.00
75157;BME280;63736;50.076;8.198;2023-03-21T06:38:03;99613.03;;;10.34;100.00
75157;BME280;63736;50.076;8.198;2023-03-21T06:40:28;99607.00;;;10.43;100.00
75157;BME280;63736;50.076;8.198;2023-03-21T06:42:53;99607.19;;;10.51;100.00
75157;BME280;63736;50.076;8.198;2023-03-21T06:45:19;99603.03;;;10.58;100.00
75157;BME280;63736;50.076;8.198;2023-03-21T06:47:44;99608.31;;;10.70;100.00
75157;BME280;63736;50.076;8.198;2023-03-21T06:50:10;99607.44;;;10.81;100.00
75157;BME280;63736;50.076;8.198;2023-03-21T06:52:35;99605.31;;;10.96;100.00
75157;BME280;63736;50.076;8.198;2023-03-21T06:55:00;99606.81;;;11.10;100.00
75157;BME280;63736;50.076;8.198;2023-03-21T06:57:26;99608.28;;;11.23;100.00
75157;BME280;63736;50.076;8.198;2023-03-21T06:59:51;99605.56;;;11.35;100.00
75157;BME280;63736;50.076;8.198;2023-03-21T07:02:16;99607.19;;;11.47;100.00
75157;BME280;63736;50.076;8.198;2023-03-21T07:04:42;99598.50;;;11.55;100.00
75157;BME280;63736;50.076;8.198;2023-03-21T07:07:07;99599.25;;;11.67;100.00
75157;BME280;63736;50.076;8.198;2023-03-21T07:09:32;99610.13;;;11.75;100.00
75157;BME280;63736;50.076;8.198;2023-03-21T07:11:57;99602.09;;;11.75;100.00
75157;BME280;63736;50.076;8.198;2023-03-21T07:14:23;99608.41;;;11.74;100.00
75157;BME280;63736;50.076;8.198;2023-03-21T07:16:48;99612.66;;;11.77;100.00
75157;BME280;63736;50.076;8.198;2023-03-21T07:19:13;99616.75;;;11.81;100.00
75157;BME280;63736;50.076;8.198;2023-03-21T07:21:39;99611.97;;;11.84;100.00
75157;BME280;63736;50.076;8.198;2023-03-21T07:24:05;99618.22;;;11.95;100.00
75157;BME280;63736;50.076;8.198;2023-03-21T07:26:30;99611.09;;;12.05;98.41
75157;BME280;63736;50.076;8.198;2023-03-21T07:28:55;99615.22;;;12.19;97.17
75157;BME280;63736;50.076;8.198;2023-03-21T07:31:21;99613.44;;;12.29;96.06
75157;BME280;63736;50.076;8.198;2023-03-21T07:33:50;99614.56;;;12.36;94.51
75157;BME280;63736;50.076;8.198;2023-03-21T07:36:15;99620.34;;;12.42;93.31
75157;BME280;63736;50.076;8.198;2023-03-21T07:38:42;99612.59;;;12.48;92.58
75157;BME280;63736;50.076;8.198;2023-03-21T07:41:08;99614.88;;;12.53;90.71
75157;BME280;63736;50.076;8.198;2023-03-21T07:43:33;99609.38;;;12.54;88.54
75157;BME280;63736;50.076;8.198;2023-03-21T07:45:58;99609.09;;;12.58;86.67
75157;BME280;63736;50.076;8.198;2023-03-21T07:48:24;99611.91;;;12.56;87.84
75157;BME280;63736;50.076;8.198;2023-03-21T07:50:49;99613.16;;;12.52;86.28
75157;BME280;63736;50.076;8.198;2023-03-21T07:53:15;99619.94;;;12.46;84.92
75157;BME280;63736;50.076;8.198;2023-03-21T07:55:40;99608.50;;;12.44;85.95
75157;BME280;63736;50.076;8.198;2023-03-21T07:58:05;99614.44;;;12.48;85.59
75157;BME280;63736;50.076;8.198;2023-03-21T08:00:31;99607.81;;;12.52;84.73
75157;BME280;63736;50.076;8.198;2023-03-21T08:02:58;99607.66;;;12.53;84.27
75157;BME280;63736;50.076;8.198;2023-03-21T08:05:27;99615.69;;;12.53;84.22
75157;BME280;63736;50.076;8.198;2023-03-21T08:07:52;99611.06;;;12.55;84.84
75157;BME280;63736;50.076;8.198;2023-03-21T08:10:18;99610.06;;;12.66;84.67
75157;BME280;63736;50.076;8.198;2023-03-21T08:12:44;99608.97;;;12.79;83.54
75157;BME280;63736;50.076;8.198;2023-03-21T08:15:11;99613.59;;;12.96;83.08
75157;BME280;63736;50.076;8.198;2023-03-21T08:17:38;99608.50;;;13.13;80.61
75157;BME280;63736;50.076;8.198;2023-03-21T08:20:09;99602.81;;;13.35;79.59
75157;BME280;63736;50.076;8.198;2023-03-21T08:22:36;99607.72;;;13.60;78.50
75157;BME280;63736;50.076;8.198;2023-03-21T08:25:03;99601.59;;;13.77;76.50
75157;BME280;63736;50.076;8.198;2023-03-21T08:27:30;99608.69;;;13.96;76.73
75157;BME280;63736;50.076;8.198;2023-03-21T08:29:56;99604.44;;;14.03;74.88
75157;BME280;63736;50.076;8.198;2023-03-21T08:32:21;99603.81;;;14.10;73.98
75157;BME280;63736;50.076;8.198;2023-03-21T08:34:53;99606.06;;;14.14;73.42
75157;BME280;63736;50.076;8.198;2023-03-21T08:37:18;99609.59;;;14.15;72.88
75157;BME280;63736;50.076;8.198;2023-03-21T08:39:44;99606.25;;;14.03;71.51
75157;BME280;63736;50.076;8.198;2023-03-21T08:42:09;99605.19;;;13.96;71.95
75157;BME280;63736;50.076;8.198;2023-03-21T08:44:34;99604.78;;;13.91;70.81
75157;BME280;63736;50.076;8.198;2023-03-21T08:47:00;99608.34;;;13.81;71.18
75157;BME280;63736;50.076;8.198;2023-03-21T08:49:25;99610.63;;;13.76;71.56
75157;BME280;63736;50.076;8.198;2023-03-21T08:51:54;99615.75;;;13.69;71.47
75157;BME280;63736;50.076;8.198;2023-03-21T08:54:20;99607.28;;;13.64;72.22
75157;BME280;63736;50.076;8.198;2023-03-21T08:56:46;99614.63;;;13.62;72.75
75157;BME280;63736;50.076;8.198;2023-03-21T08:59:12;99617.91;;;13.56;73.16
75157;BME280;63736;50.076;8.198;2023-03-21T09:01:37;99611.84;;;13.54;73.95
75157;BME280;63736;50.076;8.198;2023-03-21T09:04:02;99616.81;;;13.49;74.31
75157;BME280;63736;50.076;8.198;2023-03-21T09:06:31;99618.09;;;13.45;74.43
75157;BME280;63736;50.076;8.198;2023-03-21T09:08:58;99606.78;;;13.41;74.23
75157;BME280;63736;50.076;8.198;2023-03-21T09:11:23;99612.59;;;13.36;73.81
75157;BME280;63736;50.076;8.198;2023-03-21T09:13:49;99612.44;;;13.28;73.78
75157;BME280;63736;50.076;8.198;2023-03-21T09:16:15;99614.41;;;13.26;73.95
75157;BME280;63736;50.076;8.198;2023-03-21T09:18:40;99607.66;;;13.22;73.89
75157;BME280;63736;50.076;8.198;2023-03-21T09:21:15;99614.84;;;13.21;74.84
75157;BME280;63736;50.076;8.198;2023-03-21T09:23:41;99614.72;;;13.23;74.87
75157;BME280;63736;50.076;8.198;2023-03-21T09:26:07;99617.50;;;13.31;74.71
75157;BME280;63736;50.076;8.198;2023-03-21T09:28:34;99615.84;;;13.40;73.92
75157;BME280;63736;50.076;8.198;2023-03-21T09:31:00;99613.97;;;13.50;73.76
75157;BME280;63736;50.076;8.198;2023-03-21T09:33:27;99607.88;;;13.58;72.59
75157;BME280;63736;50.076;8.198;2023-03-21T09:35:54;99613.09;;;13.60;71.84
75157;BME280;63736;50.076;8.198;2023-03-21T09:38:19;99611.25;;;13.60;71.26
75157;BME280;63736;50.076;8.198;2023-03-21T09:46:44;99618.34;;;13.51;72.74
75157;BME280;63736;50.076;8.198;2023-03-21T09:49:18;99623.47;;;13.45;73.55
75157;BME280;63736;50.076;8.198;2023-03-21T09:51:46;99623.16;;;13.38;74.56
75157;BME280;63736;50.076;8.198;2023-03-21T09:54:24;99625.56;;;13.31;74.93
75157;BME280;63736;50.076;8.198;2023-03-21T09:56:53;99622.34;;;13.18;76.04
75157;BME280;63736;50.076;8.198;2023-03-21T09:59:28;99623.91;;;13.01;78.21
75157;BME280;63736;50.076;8.198;2023-03-21T10:01:57;99614.31;;;12.88;79.29
75157;BME280;63736;50.076;8.198;2023-03-21T10:04:24;99624.63;;;12.73;80.22
75157;BME280;63736;50.076;8.198;2023-03-21T10:06:59;99623.22;;;12.69;81.07
75157;BME280;63736;50.076;8.198;2023-03-21T10:09:27;99617.97;;;12.68;83.19
75157;BME280;63736;50.076;8.198;2023-03-21T10:14:29;99615.84;;;12.71;83.47
75157;BME280;63736;50.076;8.198;2023-03-21T10:17:05;99610.78;;;12.78;85.02
75157;BME280;63736;50.076;8.198;2023-03-21T10:19:34;99611.22;;;12.73;85.19
75157;BME280;63736;50.076;8.198;2023-03-21T10:22:00;99610.25;;;12.75;84.94
75157;BME280;63736;50.076;8.198;2023-03-21T10:24:27;99612.19;;;12.72;86.32
75157;BME280;63736;50.076;8.198;2023-03-21T10:26:54;99614.72;;;12.74;86.66
75157;BME280;63736;50.076;8.198;2023-03-21T10:29:24;99614.59;;;12.76;86.16
75157;BME280;63736;50.076;8.198;2023-03-21T10:31:51;99612.91;;;12.75;86.53
75157;BME280;63736;50.076;8.198;2023-03-21T10:34:25;99611.78;;;12.77;86.26
75157;BME280;63736;50.076;8.198;2023-03-21T10:36:52;99617.97;;;12.78;86.85
75157;BME280;63736;50.076;8.198;2023-03-21T10:39:25;99617.00;;;12.79;87.54
75157;BME280;63736;50.076;8.198;2023-03-21T10:41:51;99612.34;;;12.71;88.42
75157;BME280;63736;50.076;8.198;2023-03-21T10:44:18;99619.25;;;12.64;88.58
75157;BME280;63736;50.076;8.198;2023-03-21T10:47:16;99619.94;;;12.56;89.59
75157;BME280;63736;50.076;8.198;2023-03-21T10:49:45;99616.00;;;12.50;90.52
75157;BME280;63736;50.076;8.198;2023-03-21T10:52:14;99622.34;;;12.39;91.41
75157;BME280;63736;50.076;8.198;2023-03-21T10:54:42;99622.31;;;12.30;93.35
75157;BME280;63736;50.076;8.198;2023-03-21T10:57:17;99627.66;;;12.30;94.40
75157;BME280;63736;50.076;8.198;2023-03-21T10:59:53;99624.13;;;12.29;95.70
75157;BME280;63736;50.076;8.198;2023-03-21T11:02:24;99626.25;;;12.26;95.99
75157;BME280;63736;50.076;8.198;2023-03-21T11:04:53;99625.25;;;12.27;97.02
75157;BME280;63736;50.076;8.198;2023-03-21T11:07:19;99623.84;;;12.32;97.38
75157;BME280;63736;50.076;8.198;2023-03-21T11:09:57;99621.75;;;12.36;97.70
75157;BME280;63736;50.076;8.198;2023-03-21T11:12:31;99619.63;;;12.30;97.97
75157;BME280;63736;50.076;8.198;2023-03-21T11:15:18;99615.13;;;12.40;98.28
75157;BME280;63736;50.076;8.198;2023-03-21T11:17:48;99615.59;;;12.55;98.07
75157;BME280;63736;50.076;8.198;2023-03-21T11:20:17;99619.41;;;12.72;96.52
75157;BME280;63736;50.076;8.198;2023-03-21T11:22:44;99617.44;;;12.84;94.99
75157;BME280;63736;50.076;8.198;2023-03-21T11:25:24;99614.59;;;12.95;93.81
75157;BME280;63736;50.076;8.198;2023-03-21T11:27:54;99600.47;;;13.03;92.99
75157;BME280;63736;50.076;8.198;2023-03-21T11:30:23;99596.50;;;13.17;92.42
75157;BME280;63736;50.076;8.198;2023-03-21T11:33:00;99598.88;;;13.30;91.58
75157;BME280;63736;50.076;8.198;2023-03-21T11:35:32;99591.53;;;13.42;90.87
75157;BME280;63736;50.076;8.198;2023-03-21T11:37:58;99589.09;;;13.58;88.88
75157;BME280;63736;50.076;8.198;2023-03-21T11:40:25;99596.06;;;13.79;89.26
75157;BME280;63736;50.076;8.198;2023-03-21T11:43:00;99588.81;;;13.89;87.08
75157;BME280;63736;50.076;8.198;2023-03-21T11:45:29;99578.59;;;13.93;86.21
75157;BME280;63736;50.076;8.198;2023-03-21T11:47:57;99575.41;;;13.89;85.58
75157;BME280;63736;50.076;8.198;2023-03-21T11:50:38;99575.69;;;13.86;85.69
75157;BME280;63736;50.076;8.198;2023-03-21T11:53:22;99565.50;;;13.90;85.32
75157;BME280;63736;50.076;8.198;2023-03-21T11:55:55;99564.66;;;13.89;84.20
75157;BME280;63736;50.076;8.198;2023-03-21T11:58:57;99564.94;;;13.86;84.23
75157;BME280;63736;50.076;8.198;2023-03-21T12:04:19;99562.97;;;13.88;84.34
75157;BME280;63736;50.076;8.198;2023-03-21T12:09:42;99562.84;;;13.80;83.35
75157;BME280;63736;50.076;8.198;2023-03-21T12:12:13;99559.38;;;13.69;83.92
75157;BME280;63736;50.076;8.198;2023-03-21T12:15:02;99560.13;;;13.62;84.78
75157;BME280;63736;50.076;8.198;2023-03-21T12:25:32;99554.25;;;13.29;88.23
75157;BME280;63736;50.076;8.198;2023-03-21T12:28:15;99552.03;;;13.24;89.26
75157;BME280;63736;50.076;8.198;2023-03-21T12:33:44;99531.50;;;13.33;89.49
75157;BME280;63736;50.076;8.198;2023-03-21T12:41:43;99521.25;;;13.66;89.24
75157;BME280;63736;50.076;8.198;2023-03-21T12:44:14;99514.16;;;13.75;88.97
75157;BME280;63736;50.076;8.198;2023-03-21T12:46:50;99509.16;;;13.80;87.79
75157;BME280;63736;50.076;8.198;2023-03-21T12:49:34;99508.31;;;13.79;87.10
75157;BME280;63736;50.076;8.198;2023-03-21T12:52:03;99503.53;;;13.73;87.98
75157;BME280;63736;50.076;8.198;2023-03-21T12:57:22;99498.31;;;13.71;89.34
75157;BME280;63736;50.076;8.198;2023-03-21T13:00:01;99500.19;;;13.71;89.63
75157;BME280;63736;50.076;8.198;2023-03-21T13:02:41;99510.66;;;13.64;90.75
75157;BME280;63736;50.076;8.198;2023-03-21T13:05:19;99509.56;;;13.57;92.24
75157;BME280;63736;50.076;8.198;2023-03-21T13:07:49;99503.09;;;13.50;93.53
75157;BME280;63736;50.076;8.198;2023-03-21T13:10:18;99491.97;;;13.45;94.35
75157;BME280;63736;50.076;8.198;2023-03-21T13:15:55;99485.91;;;13.33;96.06
75157;BME280;63736;50.076;8.198;2023-03-21T13:18:35;99476.94;;;13.24;96.19
75157;BME280;63736;50.076;8.198;2023-03-21T13:21:40;99478.94;;;13.12;98.19
75157;BME280;63736;50.076;8.198;2023-03-21T13:27:02;99472.22;;;12.88;100.00
75157;BME280;63736;50.076;8.198;2023-03-21T13:29:34;99477.47;;;12.80;100.00
75157;BME280;63736;50.076;8.198;2023-03-21T13:32:32;99478.75;;;12.76;100.00
75157;BME280;63736;50.076;8.198;2023-03-21T13:35:01;99465.94;;;12.70;100.00
75157;BME280;63736;50.076;8.198;2023-03-21T13:37:39;99463.53;;;12.67;100.00
75157;BME280;63736;50.076;8.198;2023-03-21T13:40:18;99461.69;;;12.67;100.00
75157;BME280;63736;50.076;8.198;2023-03-21T13:42:50;99463.41;;;12.68;100.00
75157;BME280;63736;50.076;8.198;2023-03-21T13:45:44;99460.72;;;12.68;100.00
75157;BME280;63736;50.076;8.198;2023-03-21T13:48:30;99461.41;;;12.70;100.00
75157;BME280;63736;50.076;8.198;2023-03-21T13:51:00;99451.69;;;12.69;100.00
75157;BME280;63736;50.076;8.198;2023-03-21T13:53:38;99451.69;;;12.69;100.00
75157;BME280;63736;50.076;8.198;2023-03-21T14:01:20;99447.72;;;12.73;100.00
75157;BME280;63736;50.076;8.198;2023-03-21T14:03:47;99450.25;;;12.75;100.00
75157;BME280;63736;50.076;8.198;2023-03-21T14:06:14;99441.06;;;12.78;100.00
75157;BME280;63736;50.076;8.198;2023-03-21T14:08:44;99434.44;;;12.82;100.00
75157;BME280;63736;50.076;8.198;2023-03-21T14:11:14;99435.81;;;12.86;100.00
75157;BME280;63736;50.076;8.198;2023-03-21T14:13:42;99422.56;;;12.84;100.00
75157;BME280;63736;50.076;8.198;2023-03-21T14:16:11;99418.50;;;12.80;100.00
75157;BME280;63736;50.076;8.198;2023-03-21T14:18:49;99406.53;;;12.75;100.00
75157;BME280;63736;50.076;8.198;2023-03-21T14:21:18;99405.41;;;12.67;100.00